createdAt,value
2019-05-01T00:00:15.809Z,25.15
2019-05-01T00:02:59.817Z,24.05
2019-05-01T00:05:37.606Z,25.17
2019-05-01T00:08:13.376Z,24.95
2019-05-01T00:10:47.738Z,24.80
2019-05-01T00:13:24.631Z,25.80
2019-05-01T00:15:59.059Z,24.95
2019-05-01T00:18:36.705Z,24.05
2019-05-01T00:21:15.279Z,24.57
2019-05-01T00:23:52.542Z,24.72
2019-05-01T00:26:27.402Z,24.20
2019-05-01T00:29:02.026Z,26.15
2019-05-01T00:31:39.855Z,25.52
2019-05-01T00:34:15.437Z,25.82
2019-05-01T00:36:49.336Z,25.02
2019-05-01T00:39:30.129Z,24.90
2019-05-01T00:42:02.399Z,25.12
2019-05-01T00:44:37.003Z,24.92
2019-05-01T00:47:11.512Z,26.42
2019-05-01T00:49:49.178Z,25.77
2019-05-01T00:52:22.894Z,25.32
2019-05-01T00:54:59.144Z,25.27
2019-05-01T00:57:46.652Z,24.92
2019-05-01T01:00:43.307Z,26.62
2019-05-01T01:03:16.807Z,27.10
2019-05-01T01:05:51.640Z,26.77
2019-05-01T01:08:26.117Z,25.77
2019-05-01T01:11:01.604Z,25.05
2019-05-01T01:13:36.281Z,26.10
2019-05-01T01:16:10.481Z,26.45
2019-05-01T01:18:45.522Z,27.27
2019-05-01T01:21:22.932Z,26.62
2019-05-01T01:23:59.413Z,25.60
2019-05-01T01:26:35.621Z,27.20
2019-05-01T01:29:10.291Z,25.10
2019-05-01T01:31:48.437Z,24.32
2019-05-01T01:34:24.469Z,25.43
2019-05-01T01:37:03.963Z,24.92
2019-05-01T01:39:42.972Z,24.32
2019-05-01T01:42:19.075Z,24.05
2019-05-01T01:45:01.337Z,24.52
2019-05-01T01:47:37.226Z,23.93
2019-05-01T01:50:12.723Z,25.12
2019-05-01T01:52:50.156Z,23.67
2019-05-01T01:55:24.621Z,26.40
2019-05-01T01:58:07.469Z,26.40
2019-05-01T02:01:10.336Z,25.90
2019-05-01T02:04:04.233Z,25.35
2019-05-01T02:06:40.003Z,24.50
2019-05-01T02:09:18.756Z,24.12
2019-05-01T02:11:53.293Z,25.27
2019-05-01T02:14:30.687Z,24.77
2019-05-01T02:17:07.577Z,24.25
2019-05-01T02:19:43.439Z,25.45
2019-05-01T02:22:20.250Z,27.25
2019-05-01T02:24:54.902Z,26.70
2019-05-01T02:27:30.535Z,27.42
2019-05-01T02:30:09.130Z,30.23
2019-05-01T02:32:44.344Z,26.00
2019-05-01T02:35:20.621Z,22.37
2019-05-01T02:37:56.631Z,26.33
2019-05-01T02:40:50.306Z,30.17
2019-05-01T02:43:28.342Z,32.90
2019-05-01T02:46:09.107Z,24.65
2019-05-01T02:48:46.752Z,25.25
2019-05-01T02:51:22.381Z,24.35
2019-05-01T02:54:01.994Z,24.00
2019-05-01T02:56:41.041Z,24.18
2019-05-01T02:59:16.569Z,24.92
2019-05-01T03:01:55.506Z,25.60
2019-05-01T03:04:30.746Z,24.32
2019-05-01T03:07:06.497Z,22.32
2019-05-01T03:09:46.315Z,23.15
2019-05-01T03:12:26.808Z,22.13
2019-05-01T03:15:00.142Z,21.87
2019-05-01T03:17:51.302Z,22.15
2019-05-01T03:20:43.609Z,24.63
2019-05-01T03:23:26.421Z,20.35
2019-05-01T03:26:04.224Z,22.55
2019-05-01T03:28:36.985Z,22.52
2019-05-01T03:31:13.091Z,21.17
2019-05-01T03:33:47.650Z,22.90
2019-05-01T03:36:23.821Z,23.15
2019-05-01T03:39:01.462Z,28.35
2019-05-01T03:41:36.177Z,25.15
2019-05-01T03:44:12.032Z,26.85
2019-05-01T03:46:46.620Z,33.63
2019-05-01T03:49:22.237Z,23.00
2019-05-01T03:51:57.206Z,21.85
2019-05-01T03:54:33.185Z,21.73
2019-05-01T03:57:12.711Z,22.32
2019-05-01T03:59:49.242Z,22.00
2019-05-01T04:02:33.483Z,24.20
2019-05-01T04:05:00.924Z,22.93
2019-05-01T04:07:36.503Z,21.65
2019-05-01T04:10:11.386Z,19.62
2019-05-01T04:12:48.839Z,21.57
2019-05-01T04:15:22.852Z,23.80
2019-05-01T04:17:59.879Z,20.90
2019-05-01T04:20:34.101Z,20.95
2019-05-01T04:23:14.525Z,23.57
2019-05-01T04:37:42.835Z,24.65
2019-05-01T04:46:32.256Z,21.05
2019-05-01T04:49:05.878Z,22.07
2019-05-01T04:54:35.745Z,20.02
2019-05-01T04:57:09.110Z,21.57
2019-05-01T05:00:30.915Z,21.43
2019-05-01T05:02:38.225Z,21.05
2019-05-01T05:11:45.339Z,20.72
2019-05-01T05:20:46.283Z,19.45
2019-05-01T05:23:48.135Z,18.73
2019-05-01T05:29:34.222Z,18.23
2019-05-01T05:38:31.240Z,19.50
2019-05-01T05:41:10.093Z,18.98
2019-05-01T05:41:56.228Z,17.60
2019-05-01T05:47:25.419Z,18.10
2019-05-01T05:50:19.674Z,21.02
2019-05-01T05:53:15.313Z,19.05
2019-05-01T05:55:56.879Z,20.02
2019-05-01T06:02:18.114Z,21.30
2019-05-01T06:08:18.928Z,19.25
2019-05-01T06:17:43.937Z,18.80
2019-05-01T06:29:58.009Z,18.40
2019-05-01T06:32:33.451Z,17.75
2019-05-01T06:35:27.782Z,17.17
2019-05-01T06:38:50.258Z,17.17
2019-05-01T06:44:43.911Z,17.82
2019-05-01T06:47:26.006Z,17.55
2019-05-01T06:50:21.969Z,16.80
2019-05-01T06:56:11.241Z,18.12
2019-05-01T07:01:53.123Z,17.10
2019-05-01T07:04:51.212Z,16.60
2019-05-01T07:08:00.046Z,16.30
2019-05-01T07:10:30.757Z,16.65
2019-05-01T07:13:16.414Z,17.10
2019-05-01T07:15:48.404Z,16.62
2019-05-01T07:21:37.226Z,16.57
2019-05-01T07:27:37.960Z,29.52
2019-05-01T07:42:48.134Z,15.88
2019-05-01T07:45:46.227Z,16.95
2019-05-01T07:48:41.747Z,15.10
2019-05-01T07:51:50.072Z,17.32
2019-05-01T07:57:23.156Z,19.40
2019-05-01T08:00:43.298Z,21.17
2019-05-01T08:09:15.114Z,15.88
2019-05-01T08:11:55.231Z,16.30
2019-05-01T08:14:31.298Z,17.45
2019-05-01T08:17:25.863Z,17.00
2019-05-01T08:20:30.272Z,15.25
2019-05-01T08:23:16.144Z,17.37
2019-05-01T08:26:08.663Z,15.65
2019-05-01T08:29:06.902Z,22.22
2019-05-01T08:44:24.794Z,15.53
2019-05-01T08:57:38.987Z,15.00
2019-05-01T08:59:49.621Z,16.35
2019-05-01T09:05:57.472Z,15.23
2019-05-01T09:08:48.471Z,15.98
2019-05-01T09:11:44.497Z,17.65
2019-05-01T09:17:35.499Z,16.93
2019-05-01T09:20:50.183Z,15.23
2019-05-01T09:26:39.400Z,14.80
2019-05-01T09:29:39.079Z,16.75
2019-05-01T09:32:26.027Z,16.20
2019-05-01T09:34:58.714Z,16.35
2019-05-01T09:37:44.344Z,17.00
2019-05-01T09:41:13.088Z,18.20
2019-05-01T09:52:27.184Z,16.82
2019-05-01T09:58:44.026Z,19.20
2019-05-01T10:01:06.375Z,19.45
2019-05-01T10:03:54.525Z,19.42
2019-05-01T10:06:47.615Z,20.35
2019-05-01T10:10:12.082Z,23.42
2019-05-01T10:15:31.151Z,22.67
2019-05-01T10:18:30.622Z,21.82
2019-05-01T10:24:15.229Z,21.02
2019-05-01T10:30:13.346Z,26.75
2019-05-01T13:05:44.810Z,27.45
2019-05-01T13:14:16.508Z,27.25
2019-05-01T13:26:31.104Z,27.20
2019-05-01T13:32:44.444Z,26.93
2019-05-01T13:37:54.747Z,29.32
2019-05-01T13:56:31.269Z,28.77
2019-05-01T13:59:30.879Z,28.60
2019-05-01T14:02:12.549Z,27.30
2019-05-01T14:15:57.605Z,26.10
2019-05-01T14:18:29.720Z,26.10
2019-05-01T14:33:30.914Z,23.95
2019-05-01T14:36:07.049Z,25.08
2019-05-01T14:39:45.637Z,24.87
2019-05-01T14:41:48.033Z,25.37
2019-05-01T14:47:52.748Z,23.83
2019-05-01T14:50:36.102Z,23.60
2019-05-01T14:53:13.511Z,23.90
2019-05-01T14:56:11.669Z,25.10
2019-05-01T15:08:34.654Z,22.98
2019-05-01T15:14:42.939Z,22.95
2019-05-01T15:17:42.662Z,23.32
2019-05-01T15:23:15.282Z,22.50
2019-05-01T15:26:09.783Z,23.55
2019-05-01T15:35:40.547Z,23.60
2019-05-01T15:38:45.131Z,22.82
2019-05-01T15:41:54.249Z,22.00
2019-05-01T15:54:02.527Z,23.77
2019-05-01T15:56:36.333Z,23.07
2019-05-01T16:02:21.741Z,23.62
2019-05-01T16:05:33.343Z,22.48
2019-05-01T16:08:09.145Z,23.30
2019-05-01T16:10:45.324Z,23.18
2019-05-01T16:13:35.539Z,22.82
2019-05-01T16:16:11.541Z,21.35
2019-05-01T16:18:59.493Z,23.92
2019-05-01T16:21:45.719Z,24.12
2019-05-01T16:24:34.473Z,22.10
2019-05-01T16:27:10.010Z,22.30
2019-05-01T16:38:56.989Z,22.42
2019-05-01T16:41:58.773Z,21.85
2019-05-01T16:44:29.117Z,21.60
2019-05-01T16:47:08.680Z,20.68
2019-05-01T16:49:47.745Z,21.57
2019-05-01T16:55:23.046Z,22.50
2019-05-01T16:58:04.562Z,23.42
2019-05-01T17:04:08.792Z,23.35
2019-05-01T17:06:55.119Z,22.07
2019-05-01T17:09:52.303Z,21.37
2019-05-01T17:12:36.586Z,20.82
2019-05-01T17:15:25.188Z,21.95
2019-05-01T17:18:08.071Z,20.50
2019-05-01T17:20:54.790Z,21.70
2019-05-01T17:23:29.917Z,21.82
2019-05-01T17:26:14.985Z,21.33
2019-05-01T17:29:05.451Z,21.68
2019-05-01T17:31:43.585Z,20.88
2019-05-01T17:34:25.480Z,20.37
2019-05-01T17:36:56.525Z,22.37
2019-05-01T17:39:42.506Z,22.32
2019-05-01T17:45:34.696Z,25.95
2019-05-01T17:48:13.551Z,26.23
2019-05-01T17:50:47.139Z,25.77
2019-05-01T17:53:29.747Z,25.35
2019-05-01T17:56:04.385Z,25.02
2019-05-01T17:58:53.513Z,26.23
2019-05-01T18:01:35.811Z,24.32
2019-05-01T18:04:15.432Z,26.77
2019-05-01T18:06:51.310Z,24.98
2019-05-01T18:09:27.611Z,24.40
2019-05-01T18:12:07.677Z,24.47
2019-05-01T18:14:52.793Z,25.75
2019-05-01T18:17:30.254Z,26.15
2019-05-01T18:20:10.157Z,25.37
2019-05-01T18:23:12.470Z,25.57
2019-05-01T18:26:04.711Z,24.98
2019-05-01T18:29:00.867Z,24.12
2019-05-01T18:31:36.286Z,28.83
2019-05-01T18:34:15.088Z,30.88
2019-05-01T18:36:50.039Z,26.85
2019-05-01T18:42:30.561Z,25.15
2019-05-01T18:45:12.428Z,23.85
2019-05-01T18:47:46.236Z,24.15
2019-05-01T18:52:57.203Z,23.38
2019-05-01T18:55:33.443Z,23.40
2019-05-01T18:58:09.971Z,23.75
2019-05-01T19:00:46.162Z,22.60
2019-05-01T19:03:22.324Z,23.90
2019-05-01T19:05:55.886Z,24.02
2019-05-01T19:08:34.658Z,23.85
2019-05-01T19:11:12.711Z,23.55
2019-05-01T19:13:44.004Z,24.65
2019-05-01T19:16:22.134Z,24.32
2019-05-01T19:18:55.763Z,23.40
2019-05-01T19:21:30.055Z,24.80
2019-05-01T19:24:07.360Z,27.52
2019-05-01T19:26:44.142Z,27.95
2019-05-01T19:29:17.625Z,26.57
2019-05-01T19:31:52.993Z,25.82
2019-05-01T19:34:27.167Z,24.87
2019-05-01T19:37:04.896Z,24.07
2019-05-01T19:39:43.933Z,23.35
2019-05-01T19:42:13.618Z,23.95
2019-05-01T19:47:21.725Z,22.15
2019-05-01T19:49:55.407Z,21.95
2019-05-01T19:55:05.882Z,21.35
2019-05-01T19:57:36.164Z,21.93
2019-05-01T20:02:43.180Z,21.37
2019-05-01T20:05:16.610Z,29.02
2019-05-01T20:07:55.647Z,21.73
2019-05-01T20:10:27.481Z,21.35
2019-05-01T20:13:01.295Z,19.82
2019-05-01T20:18:10.638Z,19.80
2019-05-01T20:20:44.337Z,20.52
2019-05-01T20:23:17.831Z,20.15
2019-05-01T20:25:55.744Z,20.68
2019-05-01T20:28:25.992Z,18.85
2019-05-01T20:30:59.387Z,20.23
2019-05-01T20:33:38.110Z,20.92
2019-05-01T20:36:07.970Z,21.05
2019-05-01T20:38:49.138Z,20.20
2019-05-01T20:41:22.564Z,21.40
2019-05-01T20:43:56.075Z,20.35
2019-05-01T20:46:29.491Z,18.57
2019-05-01T20:49:06.495Z,21.15
2019-05-01T20:51:40.225Z,21.40
2019-05-01T20:54:15.720Z,21.35
2019-05-01T20:56:53.176Z,20.45
2019-05-01T20:59:29.474Z,23.92
2019-05-01T21:02:08.020Z,20.65
2019-05-01T21:04:49.534Z,21.93
2019-05-01T21:07:29.332Z,21.40
2019-05-01T21:10:04.925Z,21.02
2019-05-01T21:12:38.579Z,20.90
2019-05-01T21:15:13.996Z,20.77
2019-05-01T21:17:49.314Z,21.45
2019-05-01T21:20:23.872Z,21.12
2019-05-01T21:23:11.659Z,21.93
2019-05-01T21:25:50.186Z,20.55
2019-05-01T21:28:24.123Z,20.48
2019-05-01T21:30:57.655Z,19.23
2019-05-01T21:33:34.265Z,19.35
2019-05-01T21:36:08.489Z,18.70
2019-05-01T21:38:45.405Z,21.12
2019-05-01T21:41:22.372Z,19.27
2019-05-01T21:43:58.539Z,19.55
2019-05-01T21:46:34.585Z,18.95
2019-05-01T21:49:10.402Z,20.57
2019-05-01T21:51:45.993Z,19.12
2019-05-01T21:54:20.665Z,19.85
2019-05-01T21:56:54.784Z,19.60
2019-05-01T21:59:44.041Z,18.00
2019-05-01T22:02:18.546Z,19.20
2019-05-01T22:04:53.183Z,19.70
2019-05-01T22:07:29.168Z,18.50
2019-05-01T22:10:04.885Z,19.42
2019-05-01T22:12:43.983Z,18.23
2019-05-01T22:15:23.195Z,18.00
2019-05-01T22:18:16.549Z,18.48
2019-05-01T22:20:54.314Z,19.42
2019-05-01T22:23:49.146Z,17.60
2019-05-01T22:26:23.655Z,17.30
2019-05-01T22:32:07.803Z,17.75
2019-05-01T22:37:40.432Z,16.05
2019-05-01T22:40:23.004Z,17.42
2019-05-01T22:42:57.794Z,17.67
2019-05-01T22:48:31.205Z,16.80
2019-05-01T22:51:09.019Z,16.62
2019-05-01T22:53:54.250Z,16.87
2019-05-01T22:56:30.996Z,18.48
2019-05-01T22:59:04.598Z,19.65
2019-05-01T23:01:41.722Z,19.75
2019-05-01T23:04:23.302Z,19.52
2019-05-01T23:07:07.602Z,20.97
2019-05-01T23:09:38.045Z,18.67
2019-05-01T23:12:16.608Z,18.57
2019-05-01T23:15:09.304Z,20.95
2019-05-01T23:18:03.223Z,20.45
2019-05-01T23:20:45.423Z,21.23
2019-05-01T23:23:44.306Z,24.37
2019-05-01T23:26:32.517Z,23.42
2019-05-01T23:29:08.732Z,24.15
2019-05-01T23:31:53.465Z,25.80
2019-05-01T23:34:33.809Z,23.62
2019-05-01T23:37:25.805Z,23.38
2019-05-01T23:40:11.005Z,22.20
2019-05-01T23:45:49.210Z,24.10
2019-05-01T23:48:32.865Z,23.98
2019-05-01T23:51:23.679Z,24.35
2019-05-01T23:54:01.228Z,24.55
2019-05-01T23:56:50.828Z,23.30
2019-05-01T23:59:31.227Z,23.22
